sensor_id;sensor_type;location;lat;lon;timestamp;P1;durP1;ratioP1;P2;durP2;ratioP2
59824;SDS011;45703;50.898;6.054;2023-03-08T00:01:01;7.10;;;2.83;;
59824;SDS011;45703;50.898;6.054;2023-03-08T00:03:33;8.32;;;2.83;;
59824;SDS011;45703;50.898;6.054;2023-03-08T00:06:02;6.53;;;2.47;;
59824;SDS011;45703;50.898;6.054;2023-03-08T00:08:28;6.68;;;2.22;;
59824;SDS011;45703;50.898;6.054;2023-03-08T00:10:54;7.25;;;2.30;;
59824;SDS011;45703;50.898;6.054;2023-03-08T00:13:19;6.97;;;2.42;;
59824;SDS011;45703;50.898;6.054;2023-03-08T00:15:44;6.50;;;2.25;;
59824;SDS011;45703;50.898;6.054;2023-03-08T00:18:10;7.47;;;2.67;;
59824;SDS011;45703;50.898;6.054;2023-03-08T00:20:35;6.82;;;2.58;;
59824;SDS011;45703;50.898;6.054;2023-03-08T00:23:01;7.38;;;1.95;;
59824;SDS011;45703;50.898;6.054;2023-03-08T00:25:26;6.75;;;2.17;;
59824;SDS011;45703;50.898;6.054;2023-03-08T00:27:51;6.38;;;1.98;;
59824;SDS011;45703;50.898;6.054;2023-03-08T00:30:17;6.75;;;2.40;;
59824;SDS011;45703;50.898;6.054;2023-03-08T00:32:43;6.47;;;2.50;;
59824;SDS011;45703;50.898;6.054;2023-03-08T00:35:08;6.50;;;2.22;;
59824;SDS011;45703;50.898;6.054;2023-03-08T00:37:33;6.75;;;2.30;;
59824;SDS011;45703;50.898;6.054;2023-03-08T00:39:59;6.72;;;2.33;;
59824;SDS011;45703;50.898;6.054;2023-03-08T00:42:24;6.57;;;2.13;;
59824;SDS011;45703;50.898;6.054;2023-03-08T00:44:50;6.57;;;2.03;;
59824;SDS011;45703;50.898;6.054;2023-03-08T00:47:15;6.15;;;2.38;;
59824;SDS011;45703;50.898;6.054;2023-03-08T00:49:41;7.03;;;2.22;;
59824;SDS011;45703;50.898;6.054;2023-03-08T00:52:07;6.57;;;2.05;;
59824;SDS011;45703;50.898;6.054;2023-03-08T00:54:33;6.95;;;2.45;;
59824;SDS011;45703;50.898;6.054;2023-03-08T00:56:58;7.32;;;2.35;;
59824;SDS011;45703;50.898;6.054;2023-03-08T00:59:24;6.60;;;2.25;;
59824;SDS011;45703;50.898;6.054;2023-03-08T01:01:49;6.75;;;2.45;;
59824;SDS011;45703;50.898;6.054;2023-03-08T01:04:15;6.50;;;1.90;;
59824;SDS011;45703;50.898;6.054;2023-03-08T01:06:40;6.53;;;2.58;;
59824;SDS011;45703;50.898;6.054;2023-03-08T01:09:07;7.10;;;2.35;;
59824;SDS011;45703;50.898;6.054;2023-03-08T01:11:33;7.00;;;2.22;;
59824;SDS011;45703;50.898;6.054;2023-03-08T01:13:59;7.88;;;2.65;;
59824;SDS011;45703;50.898;6.054;2023-03-08T01:16:27;6.63;;;2.45;;
59824;SDS011;45703;50.898;6.054;2023-03-08T01:18:55;7.50;;;2.50;;
59824;SDS011;45703;50.898;6.054;2023-03-08T01:21:22;6.65;;;2.30;;
59824;SDS011;45703;50.898;6.054;2023-03-08T01:23:48;6.80;;;2.17;;
59824;SDS011;45703;50.898;6.054;2023-03-08T01:26:15;8.02;;;2.53;;
59824;SDS011;45703;50.898;6.054;2023-03-08T01:28:42;7.30;;;2.58;;
59824;SDS011;45703;50.898;6.054;2023-03-08T01:31:12;7.07;;;2.38;;
59824;SDS011;45703;50.898;6.054;2023-03-08T01:33:40;8.05;;;2.83;;
59824;SDS011;45703;50.898;6.054;2023-03-08T01:36:07;6.82;;;2.65;;
59824;SDS011;45703;50.898;6.054;2023-03-08T01:38:34;6.70;;;2.67;;
59824;SDS011;45703;50.898;6.054;2023-03-08T01:41:01;8.70;;;3.08;;
59824;SDS011;45703;50.898;6.054;2023-03-08T01:43:28;7.55;;;3.10;;
59824;SDS011;45703;50.898;6.054;2023-03-08T01:46:16;7.97;;;3.22;;
59824;SDS011;45703;50.898;6.054;2023-03-08T01:48:46;7.90;;;2.90;;
59824;SDS011;45703;50.898;6.054;2023-03-08T01:51:30;8.02;;;3.38;;
59824;SDS011;45703;50.898;6.054;2023-03-08T01:54:24;8.40;;;3.28;;
59824;SDS011;45703;50.898;6.054;2023-03-08T01:56:49;7.93;;;3.08;;
59824;SDS011;45703;50.898;6.054;2023-03-08T01:59:15;7.82;;;3.03;;
59824;SDS011;45703;50.898;6.054;2023-03-08T02:01:42;8.40;;;3.22;;
59824;SDS011;45703;50.898;6.054;2023-03-08T02:04:07;9.60;;;3.65;;
59824;SDS011;45703;50.898;6.054;2023-03-08T02:06:34;8.45;;;3.35;;
59824;SDS011;45703;50.898;6.054;2023-03-08T02:08:59;8.07;;;3.08;;
59824;SDS011;45703;50.898;6.054;2023-03-08T02:11:28;8.38;;;3.33;;
59824;SDS011;45703;50.898;6.054;2023-03-08T02:13:55;7.97;;;3.67;;
59824;SDS011;45703;50.898;6.054;2023-03-08T02:16:21;8.77;;;3.30;;
59824;SDS011;45703;50.898;6.054;2023-03-08T02:18:49;7.93;;;3.03;;
59824;SDS011;45703;50.898;6.054;2023-03-08T02:21:16;7.70;;;3.15;;
59824;SDS011;45703;50.898;6.054;2023-03-08T02:23:41;8.07;;;3.40;;
59824;SDS011;45703;50.898;6.054;2023-03-08T02:26:07;9.82;;;3.40;;
59824;SDS011;45703;50.898;6.054;2023-03-08T02:28:32;9.02;;;3.65;;
59824;SDS011;45703;50.898;6.054;2023-03-08T02:30:58;7.88;;;3.08;;
59824;SDS011;45703;50.898;6.054;2023-03-08T02:33:24;8.43;;;3.28;;
59824;SDS011;45703;50.898;6.054;2023-03-08T02:35:49;9.15;;;3.58;;
59824;SDS011;45703;50.898;6.054;2023-03-08T02:38:16;8.93;;;3.20;;
59824;SDS011;45703;50.898;6.054;2023-03-08T02:40:43;7.70;;;3.15;;
59824;SDS011;45703;50.898;6.054;2023-03-08T02:43:09;9.40;;;3.78;;
59824;SDS011;45703;50.898;6.054;2023-03-08T02:45:34;8.75;;;3.45;;
59824;SDS011;45703;50.898;6.054;2023-03-08T02:48:00;7.70;;;3.22;;
59824;SDS011;45703;50.898;6.054;2023-03-08T02:50:27;7.80;;;3.08;;
59824;SDS011;45703;50.898;6.054;2023-03-08T02:52:52;9.15;;;3.55;;
59824;SDS011;45703;50.898;6.054;2023-03-08T02:55:17;8.40;;;3.30;;
59824;SDS011;45703;50.898;6.054;2023-03-08T02:57:43;8.35;;;3.58;;
59824;SDS011;45703;50.898;6.054;2023-03-08T03:00:08;7.60;;;2.92;;
59824;SDS011;45703;50.898;6.054;2023-03-08T03:02:35;7.82;;;3.17;;
59824;SDS011;45703;50.898;6.054;2023-03-08T03:05:04;8.80;;;3.10;;
59824;SDS011;45703;50.898;6.054;2023-03-08T03:07:35;8.60;;;3.03;;
59824;SDS011;45703;50.898;6.054;2023-03-08T03:10:02;8.15;;;3.30;;
59824;SDS011;45703;50.898;6.054;2023-03-08T03:12:28;8.40;;;3.47;;
59824;SDS011;45703;50.898;6.054;2023-03-08T03:14:55;7.88;;;2.92;;
59824;SDS011;45703;50.898;6.054;2023-03-08T03:17:20;8.10;;;3.10;;
59824;SDS011;45703;50.898;6.054;2023-03-08T03:19:45;8.57;;;3.03;;
59824;SDS011;45703;50.898;6.054;2023-03-08T03:22:11;8.75;;;3.25;;
59824;SDS011;45703;50.898;6.054;2023-03-08T03:24:36;8.02;;;3.05;;
59824;SDS011;45703;50.898;6.054;2023-03-08T03:27:02;7.68;;;3.08;;
59824;SDS011;45703;50.898;6.054;2023-03-08T03:29:27;8.13;;;3.10;;
59824;SDS011;45703;50.898;6.054;2023-03-08T03:31:52;7.85;;;3.00;;
59824;SDS011;45703;50.898;6.054;2023-03-08T03:34:18;7.93;;;2.88;;
59824;SDS011;45703;50.898;6.054;2023-03-08T03:36:43;7.70;;;3.05;;
59824;SDS011;45703;50.898;6.054;2023-03-08T03:39:08;7.20;;;2.88;;
59824;SDS011;45703;50.898;6.054;2023-03-08T03:41:34;8.13;;;3.10;;
59824;SDS011;45703;50.898;6.054;2023-03-08T03:43:59;7.53;;;2.70;;
59824;SDS011;45703;50.898;6.054;2023-03-08T03:46:25;6.72;;;2.47;;
59824;SDS011;45703;50.898;6.054;2023-03-08T03:48:50;8.32;;;2.75;;
59824;SDS011;45703;50.898;6.054;2023-03-08T03:51:17;6.75;;;2.47;;
59824;SDS011;45703;50.898;6.054;2023-03-08T03:53:45;7.47;;;2.58;;
59824;SDS011;45703;50.898;6.054;2023-03-08T03:58:38;7.90;;;2.60;;
59824;SDS011;45703;50.898;6.054;2023-03-08T04:01:11;7.40;;;2.38;;
59824;SDS011;45703;50.898;6.054;2023-03-08T04:03:45;6.70;;;2.17;;
59824;SDS011;45703;50.898;6.054;2023-03-08T04:06:21;6.53;;;2.60;;
59824;SDS011;45703;50.898;6.054;2023-03-08T04:08:52;6.32;;;2.10;;
59824;SDS011;45703;50.898;6.054;2023-03-08T04:11:20;6.50;;;2.17;;
59824;SDS011;45703;50.898;6.054;2023-03-08T04:13:47;7.53;;;2.67;;
59824;SDS011;45703;50.898;6.054;2023-03-08T04:16:20;6.20;;;2.50;;
59824;SDS011;45703;50.898;6.054;2023-03-08T04:18:51;6.72;;;2.20;;
59824;SDS011;45703;50.898;6.054;2023-03-08T04:21:18;7.40;;;2.58;;
59824;SDS011;45703;50.898;6.054;2023-03-08T04:23:43;7.18;;;2.67;;
59824;SDS011;45703;50.898;6.054;2023-03-08T04:26:09;7.40;;;2.83;;
59824;SDS011;45703;50.898;6.054;2023-03-08T04:28:35;6.28;;;2.40;;
59824;SDS011;45703;50.898;6.054;2023-03-08T04:33:59;7.18;;;2.75;;
59824;SDS011;45703;50.898;6.054;2023-03-08T04:36:25;6.95;;;2.70;;
59824;SDS011;45703;50.898;6.054;2023-03-08T04:38:51;7.88;;;2.72;;
59824;SDS011;45703;50.898;6.054;2023-03-08T04:41:17;7.47;;;2.97;;
59824;SDS011;45703;50.898;6.054;2023-03-08T04:43:47;8.43;;;3.05;;
59824;SDS011;45703;50.898;6.054;2023-03-08T04:46:15;8.57;;;3.17;;
59824;SDS011;45703;50.898;6.054;2023-03-08T04:48:41;8.15;;;2.78;;
59824;SDS011;45703;50.898;6.054;2023-03-08T04:51:07;7.15;;;2.50;;
59824;SDS011;45703;50.898;6.054;2023-03-08T04:53:35;7.97;;;2.50;;
59824;SDS011;45703;50.898;6.054;2023-03-08T04:56:00;7.47;;;2.85;;
59824;SDS011;45703;50.898;6.054;2023-03-08T04:58:27;7.40;;;2.75;;
59824;SDS011;45703;50.898;6.054;2023-03-08T05:00:53;7.18;;;2.30;;
59824;SDS011;45703;50.898;6.054;2023-03-08T05:03:18;7.40;;;2.38;;
59824;SDS011;45703;50.898;6.054;2023-03-08T05:05:54;6.50;;;2.15;;
59824;SDS011;45703;50.898;6.054;2023-03-08T05:08:20;7.00;;;2.28;;
59824;SDS011;45703;50.898;6.054;2023-03-08T05:10:57;6.68;;;2.10;;
59824;SDS011;45703;50.898;6.054;2023-03-08T05:13:24;5.82;;;2.05;;
59824;SDS011;45703;50.898;6.054;2023-03-08T05:15:51;6.45;;;2.15;;
59824;SDS011;45703;50.898;6.054;2023-03-08T05:18:17;6.80;;;2.30;;
59824;SDS011;45703;50.898;6.054;2023-03-08T05:20:42;6.22;;;2.05;;
59824;SDS011;45703;50.898;6.054;2023-03-08T05:23:09;6.43;;;2.15;;
59824;SDS011;45703;50.898;6.054;2023-03-08T05:25:39;6.35;;;2.08;;
59824;SDS011;45703;50.898;6.054;2023-03-08T05:28:06;6.07;;;2.13;;
59824;SDS011;45703;50.898;6.054;2023-03-08T05:30:31;7.68;;;2.38;;
59824;SDS011;45703;50.898;6.054;2023-03-08T05:32:57;5.50;;;2.00;;
59824;SDS011;45703;50.898;6.054;2023-03-08T05:35:22;6.88;;;2.30;;
59824;SDS011;45703;50.898;6.054;2023-03-08T05:37:47;6.70;;;2.05;;
59824;SDS011;45703;50.898;6.054;2023-03-08T05:40:13;6.00;;;1.70;;
59824;SDS011;45703;50.898;6.054;2023-03-08T05:42:38;5.80;;;1.85;;
59824;SDS011;45703;50.898;6.054;2023-03-08T05:45:04;5.93;;;1.63;;
59824;SDS011;45703;50.898;6.054;2023-03-08T05:47:29;5.57;;;1.83;;
59824;SDS011;45703;50.898;6.054;2023-03-08T05:49:55;5.15;;;1.50;;
59824;SDS011;45703;50.898;6.054;2023-03-08T05:52:20;6.07;;;1.60;;
59824;SDS011;45703;50.898;6.054;2023-03-08T05:54:45;6.22;;;1.90;;
59824;SDS011;45703;50.898;6.054;2023-03-08T05:57:11;5.13;;;1.65;;
59824;SDS011;45703;50.898;6.054;2023-03-08T05:59:36;4.93;;;1.33;;
59824;SDS011;45703;50.898;6.054;2023-03-08T06:02:02;5.55;;;1.70;;
59824;SDS011;45703;50.898;6.054;2023-03-08T06:04:27;4.95;;;1.58;;
59824;SDS011;45703;50.898;6.054;2023-03-08T06:06:52;5.32;;;1.50;;
59824;SDS011;45703;50.898;6.054;2023-03-08T06:09:18;5.15;;;1.70;;
59824;SDS011;45703;50.898;6.054;2023-03-08T06:11:43;6.22;;;1.67;;
59824;SDS011;45703;50.898;6.054;2023-03-08T06:14:08;6.05;;;2.00;;
59824;SDS011;45703;50.898;6.054;2023-03-08T06:16:34;6.32;;;1.70;;
59824;SDS011;45703;50.898;6.054;2023-03-08T06:19:00;6.22;;;2.00;;
59824;SDS011;45703;50.898;6.054;2023-03-08T06:21:26;6.50;;;2.20;;
59824;SDS011;45703;50.898;6.054;2023-03-08T06:23:51;6.28;;;1.90;;
59824;SDS011;45703;50.898;6.054;2023-03-08T06:26:17;6.90;;;2.30;;
59824;SDS011;45703;50.898;6.054;2023-03-08T06:28:43;7.63;;;2.60;;
59824;SDS011;45703;50.898;6.054;2023-03-08T06:31:14;6.85;;;2.63;;
59824;SDS011;45703;50.898;6.054;2023-03-08T06:33:41;7.40;;;2.50;;
59824;SDS011;45703;50.898;6.054;2023-03-08T06:36:07;7.55;;;2.45;;
59824;SDS011;45703;50.898;6.054;2023-03-08T06:38:36;7.13;;;2.58;;
59824;SDS011;45703;50.898;6.054;2023-03-08T06:41:03;7.47;;;2.88;;
59824;SDS011;45703;50.898;6.054;2023-03-08T06:43:29;7.55;;;2.85;;
59824;SDS011;45703;50.898;6.054;2023-03-08T06:45:54;6.82;;;2.80;;
59824;SDS011;45703;50.898;6.054;2023-03-08T06:48:20;7.00;;;3.05;;
59824;SDS011;45703;50.898;6.054;2023-03-08T06:50:46;7.22;;;2.33;;
59824;SDS011;45703;50.898;6.054;2023-03-08T06:53:12;6.65;;;2.40;;
59824;SDS011;45703;50.898;6.054;2023-03-08T06:55:38;6.88;;;2.42;;
59824;SDS011;45703;50.898;6.054;2023-03-08T06:58:04;6.65;;;2.30;;
59824;SDS011;45703;50.898;6.054;2023-03-08T07:00:30;6.18;;;2.30;;
59824;SDS011;45703;50.898;6.054;2023-03-08T07:02:56;8.40;;;2.85;;
59824;SDS011;45703;50.898;6.054;2023-03-08T07:05:22;6.82;;;2.22;;
59824;SDS011;45703;50.898;6.054;2023-03-08T07:07:48;6.78;;;2.42;;
59824;SDS011;45703;50.898;6.054;2023-03-08T07:10:14;7.43;;;2.42;;
59824;SDS011;45703;50.898;6.054;2023-03-08T07:12:41;6.28;;;2.25;;
59824;SDS011;45703;50.898;6.054;2023-03-08T07:15:11;6.72;;;2.10;;
59824;SDS011;45703;50.898;6.054;2023-03-08T07:17:40;6.72;;;2.30;;
59824;SDS011;45703;50.898;6.054;2023-03-08T07:20:07;6.93;;;2.65;;
59824;SDS011;45703;50.898;6.054;2023-03-08T07:22:34;6.75;;;2.60;;
59824;SDS011;45703;50.898;6.054;2023-03-08T07:25:00;7.30;;;2.75;;
59824;SDS011;45703;50.898;6.054;2023-03-08T07:27:25;7.60;;;2.97;;
59824;SDS011;45703;50.898;6.054;2023-03-08T07:29:50;6.78;;;2.30;;
59824;SDS011;45703;50.898;6.054;2023-03-08T07:32:16;6.32;;;2.30;;
59824;SDS011;45703;50.898;6.054;2023-03-08T07:34:42;6.28;;;2.40;;
59824;SDS011;45703;50.898;6.054;2023-03-08T07:37:11;7.60;;;2.60;;
59824;SDS011;45703;50.898;6.054;2023-03-08T07:39:37;6.55;;;2.30;;
59824;SDS011;45703;50.898;6.054;2023-03-08T07:42:03;6.93;;;2.72;;
59824;SDS011;45703;50.898;6.054;2023-03-08T07:44:28;7.20;;;2.60;;
59824;SDS011;45703;50.898;6.054;2023-03-08T07:46:54;6.75;;;2.45;;
59824;SDS011;45703;50.898;6.054;2023-03-08T07:49:19;6.50;;;2.50;;
59824;SDS011;45703;50.898;6.054;2023-03-08T07:51:44;6.75;;;2.72;;
59824;SDS011;45703;50.898;6.054;2023-03-08T07:54:10;7.65;;;2.70;;
59824;SDS011;45703;50.898;6.054;2023-03-08T07:56:37;7.22;;;2.90;;
59824;SDS011;45703;50.898;6.054;2023-03-08T07:59:02;6.75;;;2.58;;
59824;SDS011;45703;50.898;6.054;2023-03-08T08:01:28;6.35;;;2.40;;
59824;SDS011;45703;50.898;6.054;2023-03-08T08:03:53;7.20;;;2.88;;
59824;SDS011;45703;50.898;6.054;2023-03-08T08:06:19;6.95;;;2.90;;
59824;SDS011;45703;50.898;6.054;2023-03-08T08:08:44;7.50;;;3.10;;
59824;SDS011;45703;50.898;6.054;2023-03-08T08:11:13;6.28;;;2.75;;
59824;SDS011;45703;50.898;6.054;2023-03-08T08:13:40;7.00;;;2.63;;
59824;SDS011;45703;50.898;6.054;2023-03-08T08:16:06;7.05;;;3.05;;
59824;SDS011;45703;50.898;6.054;2023-03-08T08:18:32;7.63;;;2.92;;
59824;SDS011;45703;50.898;6.054;2023-03-08T08:20:59;7.20;;;3.10;;
59824;SDS011;45703;50.898;6.054;2023-03-08T08:23:26;6.75;;;2.75;;
59824;SDS011;45703;50.898;6.054;2023-03-08T08:25:51;8.23;;;3.53;;
59824;SDS011;45703;50.898;6.054;2023-03-08T08:28:17;9.50;;;3.67;;
59824;SDS011;45703;50.898;6.054;2023-03-08T08:30:43;7.82;;;3.42;;
59824;SDS011;45703;50.898;6.054;2023-03-08T08:33:08;8.63;;;3.50;;
59824;SDS011;45703;50.898;6.054;2023-03-08T08:35:33;9.25;;;4.25;;
59824;SDS011;45703;50.898;6.054;2023-03-08T08:37:59;8.43;;;3.22;;
59824;SDS011;45703;50.898;6.054;2023-03-08T08:40:24;8.25;;;3.80;;
59824;SDS011;45703;50.898;6.054;2023-03-08T08:42:49;8.05;;;3.53;;
59824;SDS011;45703;50.898;6.054;2023-03-08T08:45:16;8.43;;;3.90;;
59824;SDS011;45703;50.898;6.054;2023-03-08T08:47:41;9.00;;;3.70;;
59824;SDS011;45703;50.898;6.054;2023-03-08T08:50:06;8.90;;;3.75;;
59824;SDS011;45703;50.898;6.054;2023-03-08T08:52:32;8.80;;;4.15;;
59824;SDS011;45703;50.898;6.054;2023-03-08T08:54:58;9.20;;;4.15;;
59824;SDS011;45703;50.898;6.054;2023-03-08T08:57:23;9.05;;;4.05;;
59824;SDS011;45703;50.898;6.054;2023-03-08T08:59:49;8.45;;;3.97;;
59824;SDS011;45703;50.898;6.054;2023-03-08T09:02:14;9.73;;;4.80;;
59824;SDS011;45703;50.898;6.054;2023-03-08T09:04:39;8.70;;;4.47;;
59824;SDS011;45703;50.898;6.054;2023-03-08T09:07:05;9.27;;;4.63;;
59824;SDS011;45703;50.898;6.054;2023-03-08T09:09:31;10.30;;;4.65;;
59824;SDS011;45703;50.898;6.054;2023-03-08T09:11:56;9.80;;;4.22;;
59824;SDS011;45703;50.898;6.054;2023-03-08T09:14:22;10.57;;;5.13;;
59824;SDS011;45703;50.898;6.054;2023-03-08T09:16:48;9.60;;;4.65;;
59824;SDS011;45703;50.898;6.054;2023-03-08T09:19:13;9.57;;;4.88;;
59824;SDS011;45703;50.898;6.054;2023-03-08T09:21:39;9.88;;;5.15;;
59824;SDS011;45703;50.898;6.054;2023-03-08T09:24:05;9.73;;;4.90;;
59824;SDS011;45703;50.898;6.054;2023-03-08T09:26:31;9.52;;;4.65;;
59824;SDS011;45703;50.898;6.054;2023-03-08T09:28:58;9.95;;;4.80;;
59824;SDS011;45703;50.898;6.054;2023-03-08T09:31:28;9.98;;;5.07;;
59824;SDS011;45703;50.898;6.054;2023-03-08T09:33:54;9.10;;;4.65;;
59824;SDS011;45703;50.898;6.054;2023-03-08T09:36:20;10.25;;;5.22;;
59824;SDS011;45703;50.898;6.054;2023-03-08T09:38:46;10.35;;;5.05;;
59824;SDS011;45703;50.898;6.054;2023-03-08T09:46:39;9.70;;;4.68;;
59824;SDS011;45703;50.898;6.054;2023-03-08T09:49:31;9.55;;;4.22;;
59824;SDS011;45703;50.898;6.054;2023-03-08T09:54:51;9.82;;;4.88;;
59824;SDS011;45703;50.898;6.054;2023-03-08T09:57:20;10.05;;;4.85;;
59824;SDS011;45703;50.898;6.054;2023-03-08T10:02:29;9.45;;;4.75;;
59824;SDS011;45703;50.898;6.054;2023-03-08T10:07:50;11.93;;;5.57;;
59824;SDS011;45703;50.898;6.054;2023-03-08T10:21:17;11.18;;;5.50;;
59824;SDS011;45703;50.898;6.054;2023-03-08T10:23:46;10.13;;;4.72;;
59824;SDS011;45703;50.898;6.054;2023-03-08T10:26:13;8.40;;;4.35;;
59824;SDS011;45703;50.898;6.054;2023-03-08T10:28:39;9.68;;;4.72;;
59824;SDS011;45703;50.898;6.054;2023-03-08T10:31:28;9.57;;;4.68;;
59824;SDS011;45703;50.898;6.054;2023-03-08T10:34:08;10.40;;;5.20;;
59824;SDS011;45703;50.898;6.054;2023-03-08T10:36:56;9.50;;;4.72;;
59824;SDS011;45703;50.898;6.054;2023-03-08T10:39:24;8.95;;;4.40;;
59824;SDS011;45703;50.898;6.054;2023-03-08T10:41:59;9.80;;;4.18;;
59824;SDS011;45703;50.898;6.054;2023-03-08T10:44:35;10.07;;;4.97;;
59824;SDS011;45703;50.898;6.054;2023-03-08T10:50:17;8.80;;;4.50;;
59824;SDS011;45703;50.898;6.054;2023-03-08T10:52:44;9.02;;;4.38;;
59824;SDS011;45703;50.898;6.054;2023-03-08T10:55:15;8.73;;;4.28;;
59824;SDS011;45703;50.898;6.054;2023-03-08T10:57:56;9.57;;;4.43;;
59824;SDS011;45703;50.898;6.054;2023-03-08T11:00:27;8.82;;;4.45;;
59824;SDS011;45703;50.898;6.054;2023-03-08T11:03:15;9.55;;;4.70;;
59824;SDS011;45703;50.898;6.054;2023-03-08T11:08:28;10.82;;;4.55;;
59824;SDS011;45703;50.898;6.054;2023-03-08T11:13:30;9.52;;;4.55;;
59824;SDS011;45703;50.898;6.054;2023-03-08T11:35:15;9.57;;;4.95;;
59824;SDS011;45703;50.898;6.054;2023-03-08T11:43:38;10.18;;;5.30;;
59824;SDS011;45703;50.898;6.054;2023-03-08T11:46:18;10.43;;;5.55;;
59824;SDS011;45703;50.898;6.054;2023-03-08T11:56:53;10.40;;;5.65;;
59824;SDS011;45703;50.898;6.054;2023-03-08T12:07:36;11.18;;;6.00;;
59824;SDS011;45703;50.898;6.054;2023-03-08T12:20:47;10.35;;;5.88;;
59824;SDS011;45703;50.898;6.054;2023-03-08T12:23:19;11.88;;;5.95;;
59824;SDS011;45703;50.898;6.054;2023-03-08T12:25:47;11.65;;;6.25;;
59824;SDS011;45703;50.898;6.054;2023-03-08T12:28:24;11.63;;;6.78;;
59824;SDS011;45703;50.898;6.054;2023-03-08T12:33:38;11.90;;;6.40;;
59824;SDS011;45703;50.898;6.054;2023-03-08T12:36:04;11.90;;;6.55;;
59824;SDS011;45703;50.898;6.054;2023-03-08T12:41:01;13.55;;;7.78;;
59824;SDS011;45703;50.898;6.054;2023-03-08T12:43:31;12.48;;;7.10;;
59824;SDS011;45703;50.898;6.054;2023-03-08T12:56:24;14.38;;;8.15;;
59824;SDS011;45703;50.898;6.054;2023-03-08T12:59:01;13.65;;;8.27;;
59824;SDS011;45703;50.898;6.054;2023-03-08T13:02:32;13.05;;;7.63;;
59824;SDS011;45703;50.898;6.054;2023-03-08T13:05:15;12.60;;;7.30;;
59824;SDS011;45703;50.898;6.054;2023-03-08T13:10:30;13.40;;;7.88;;
59824;SDS011;45703;50.898;6.054;2023-03-08T13:13:02;13.85;;;7.95;;
59824;SDS011;45703;50.898;6.054;2023-03-08T13:18:02;13.38;;;7.50;;
59824;SDS011;45703;50.898;6.054;2023-03-08T13:23:17;14.30;;;8.70;;
59824;SDS011;45703;50.898;6.054;2023-03-08T13:28:36;15.30;;;9.02;;
59824;SDS011;45703;50.898;6.054;2023-03-08T13:31:14;15.85;;;9.93;;
59824;SDS011;45703;50.898;6.054;2023-03-08T13:33:49;15.82;;;9.10;;
59824;SDS011;45703;50.898;6.054;2023-03-08T13:38:53;16.13;;;9.18;;
59824;SDS011;45703;50.898;6.054;2023-03-08T13:41:42;14.90;;;8.95;;
59824;SDS011;45703;50.898;6.054;2023-03-08T13:44:22;14.38;;;8.10;;
59824;SDS011;45703;50.898;6.054;2023-03-08T13:46:55;13.00;;;8.10;;
59824;SDS011;45703;50.898;6.054;2023-03-08T13:52:00;14.35;;;8.02;;
59824;SDS011;45703;50.898;6.054;2023-03-08T13:54:28;15.00;;;9.10;;
59824;SDS011;45703;50.898;6.054;2023-03-08T13:56:56;15.90;;;9.15;;
59824;SDS011;45703;50.898;6.054;2023-03-08T13:59:24;14.05;;;8.40;;
59824;SDS011;45703;50.898;6.054;2023-03-08T14:01:50;16.48;;;8.95;;
59824;SDS011;45703;50.898;6.054;2023-03-08T14:04:21;15.02;;;8.70;;
59824;SDS011;45703;50.898;6.054;2023-03-08T14:06:52;15.05;;;9.18;;
59824;SDS011;45703;50.898;6.054;2023-03-08T14:09:19;13.80;;;7.60;;
59824;SDS011;45703;50.898;6.054;2023-03-08T14:11:51;15.30;;;8.23;;
59824;SDS011;45703;50.898;6.054;2023-03-08T14:14:24;14.57;;;8.88;;
59824;SDS011;45703;50.898;6.054;2023-03-08T14:16:53;15.15;;;8.50;;
59824;SDS011;45703;50.898;6.054;2023-03-08T14:19:23;14.35;;;8.30;;
59824;SDS011;45703;50.898;6.054;2023-03-08T14:22:01;13.95;;;7.60;;
59824;SDS011;45703;50.898;6.054;2023-03-08T14:24:34;14.60;;;8.95;;
59824;SDS011;45703;50.898;6.054;2023-03-08T14:27:04;16.42;;;9.20;;
59824;SDS011;45703;50.898;6.054;2023-03-08T14:29:40;14.25;;;8.23;;
59824;SDS011;45703;50.898;6.054;2023-03-08T14:34:37;14.85;;;9.23;;
59824;SDS011;45703;50.898;6.054;2023-03-08T14:39:36;15.05;;;8.52;;
59824;SDS011;45703;50.898;6.054;2023-03-08T14:42:10;14.32;;;8.10;;
59824;SDS011;45703;50.898;6.054;2023-03-08T14:44:48;14.55;;;8.60;;
59824;SDS011;45703;50.898;6.054;2023-03-08T14:47:20;14.27;;;8.52;;
59824;SDS011;45703;50.898;6.054;2023-03-08T14:50:00;14.55;;;8.98;;
59824;SDS011;45703;50.898;6.054;2023-03-08T14:52:28;14.13;;;8.40;;
59824;SDS011;45703;50.898;6.054;2023-03-08T14:54:55;14.40;;;8.45;;
59824;SDS011;45703;50.898;6.054;2023-03-08T14:57:24;16.15;;;9.20;;
59824;SDS011;45703;50.898;6.054;2023-03-08T14:59:52;15.50;;;9.48;;
59824;SDS011;45703;50.898;6.054;2023-03-08T15:02:18;13.90;;;8.38;;
59824;SDS011;45703;50.898;6.054;2023-03-08T15:04:44;15.32;;;8.90;;
59824;SDS011;45703;50.898;6.054;2023-03-08T15:07:20;17.15;;;9.15;;
59824;SDS011;45703;50.898;6.054;2023-03-08T15:09:48;15.93;;;9.23;;
59824;SDS011;45703;50.898;6.054;2023-03-08T15:12:14;13.77;;;8.35;;
59824;SDS011;45703;50.898;6.054;2023-03-08T15:14:41;15.68;;;8.50;;
59824;SDS011;45703;50.898;6.054;2023-03-08T15:17:07;16.92;;;10.90;;
59824;SDS011;45703;50.898;6.054;2023-03-08T15:19:33;16.50;;;10.15;;
59824;SDS011;45703;50.898;6.054;2023-03-08T15:21:58;14.95;;;9.68;;
59824;SDS011;45703;50.898;6.054;2023-03-08T15:24:25;16.40;;;9.23;;
59824;SDS011;45703;50.898;6.054;2023-03-08T15:26:51;15.93;;;9.48;;
59824;SDS011;45703;50.898;6.054;2023-03-08T15:31:50;16.25;;;9.07;;
59824;SDS011;45703;50.898;6.054;2023-03-08T15:34:16;17.45;;;10.20;;
59824;SDS011;45703;50.898;6.054;2023-03-08T15:36:42;16.75;;;10.13;;
59824;SDS011;45703;50.898;6.054;2023-03-08T15:39:10;15.82;;;9.77;;
59824;SDS011;45703;50.898;6.054;2023-03-08T15:41:36;17.88;;;10.43;;
59824;SDS011;45703;50.898;6.054;2023-03-08T15:44:02;17.35;;;10.15;;
59824;SDS011;45703;50.898;6.054;2023-03-08T15:46:28;17.88;;;10.73;;
59824;SDS011;45703;50.898;6.054;2023-03-08T15:48:53;18.40;;;11.15;;
59824;SDS011;45703;50.898;6.054;2023-03-08T15:51:19;19.67;;;11.40;;
59824;SDS011;45703;50.898;6.054;2023-03-08T15:53:46;20.10;;;11.15;;
59824;SDS011;45703;50.898;6.054;2023-03-08T15:56:12;18.88;;;10.88;;
59824;SDS011;45703;50.898;6.054;2023-03-08T15:58:37;18.70;;;11.23;;
59824;SDS011;45703;50.898;6.054;2023-03-08T16:01:03;19.08;;;11.52;;
59824;SDS011;45703;50.898;6.054;2023-03-08T16:03:29;21.58;;;12.07;;
59824;SDS011;45703;50.898;6.054;2023-03-08T16:05:55;20.17;;;12.13;;
59824;SDS011;45703;50.898;6.054;2023-03-08T16:08:20;20.55;;;11.98;;
59824;SDS011;45703;50.898;6.054;2023-03-08T16:10:50;25.55;;;13.10;;
59824;SDS011;45703;50.898;6.054;2023-03-08T16:13:16;21.08;;;11.50;;
59824;SDS011;45703;50.898;6.054;2023-03-08T16:15:46;22.40;;;13.77;;
59824;SDS011;45703;50.898;6.054;2023-03-08T16:18:12;23.15;;;13.02;;
59824;SDS011;45703;50.898;6.054;2023-03-08T16:20:40;21.58;;;12.20;;
59824;SDS011;45703;50.898;6.054;2023-03-08T16:23:07;23.75;;;13.75;;
59824;SDS011;45703;50.898;6.054;2023-03-08T16:25:32;24.65;;;13.82;;
59824;SDS011;45703;50.898;6.054;2023-03-08T16:27:58;23.90;;;13.55;;
59824;SDS011;45703;50.898;6.054;2023-03-08T16:30:23;26.05;;;14.10;;
59824;SDS011;45703;50.898;6.054;2023-03-08T16:32:52;24.73;;;14.75;;
59824;SDS011;45703;50.898;6.054;2023-03-08T16:35:18;24.65;;;14.55;;
59824;SDS011;45703;50.898;6.054;2023-03-08T16:37:44;22.88;;;14.15;;
59824;SDS011;45703;50.898;6.054;2023-03-08T16:40:09;25.35;;;14.40;;
59824;SDS011;45703;50.898;6.054;2023-03-08T16:42:35;25.05;;;14.63;;
59824;SDS011;45703;50.898;6.054;2023-03-08T16:45:01;24.88;;;14.32;;
59824;SDS011;45703;50.898;6.054;2023-03-08T16:47:27;23.45;;;14.13;;
59824;SDS011;45703;50.898;6.054;2023-03-08T16:49:56;27.50;;;15.23;;
59824;SDS011;45703;50.898;6.054;2023-03-08T16:52:22;26.73;;;15.52;;
59824;SDS011;45703;50.898;6.054;2023-03-08T16:54:48;25.45;;;15.13;;
59824;SDS011;45703;50.898;6.054;2023-03-08T16:57:13;25.50;;;15.25;;